createdAt,value
2018-07-04T00:01:36.403Z,28.00
2018-07-04T00:04:10.809Z,27.60
2018-07-04T00:06:45.578Z,29.33
2018-07-04T00:09:25.787Z,29.37
2018-07-04T00:11:59.297Z,31.07
2018-07-04T00:14:38.517Z,28.70
2018-07-04T00:17:18.806Z,29.07
2018-07-04T00:19:58.001Z,30.30
2018-07-04T00:22:37.229Z,29.23
2018-07-04T00:25:10.734Z,29.07
2018-07-04T00:27:50.027Z,29.30
2018-07-04T00:30:29.439Z,28.03
2018-07-04T00:33:08.878Z,28.67
2018-07-04T00:35:48.323Z,28.50
2018-07-04T00:38:27.908Z,28.37
2018-07-04T00:41:07.216Z,28.47
2018-07-04T00:43:46.553Z,29.37
2018-07-04T00:46:20.178Z,29.70
2018-07-04T00:48:59.427Z,30.87
2018-07-04T00:51:39.790Z,30.57
2018-07-04T00:54:14.836Z,30.63
2018-07-04T00:56:54.215Z,32.13
2018-07-04T00:59:33.530Z,30.17
2018-07-04T01:02:12.921Z,30.37
2018-07-04T01:04:52.369Z,29.13
2018-07-04T01:07:31.667Z,30.90
2018-07-04T01:10:10.937Z,28.67
2018-07-04T01:12:44.467Z,27.40
2018-07-04T01:15:23.546Z,28.93
2018-07-04T01:18:02.895Z,28.00
2018-07-04T01:20:47.901Z,27.60
2018-07-04T01:23:27.042Z,28.33
2018-07-04T01:26:06.204Z,26.20
2018-07-04T01:28:49.603Z,26.37
2018-07-04T01:31:28.781Z,27.97
2018-07-04T01:34:08.667Z,25.87
2018-07-04T01:36:49.120Z,27.33
2018-07-04T01:39:22.870Z,24.57
2018-07-04T01:42:02.788Z,29.13
2018-07-04T01:44:42.047Z,27.43
2018-07-04T01:47:21.379Z,26.63
2018-07-04T01:49:55.910Z,27.30
2018-07-04T01:52:35.626Z,27.07
2018-07-04T01:55:14.751Z,27.40
2018-07-04T01:57:54.007Z,28.80
2018-07-04T02:00:27.757Z,26.60
2018-07-04T02:03:01.399Z,28.80
2018-07-04T02:05:34.966Z,27.77
2018-07-04T02:08:09.488Z,26.60
2018-07-04T02:10:43.087Z,26.40
2018-07-04T02:13:22.246Z,26.87
2018-07-04T02:16:01.807Z,25.70
2018-07-04T02:18:37.993Z,24.80
2018-07-04T02:21:13.814Z,26.23
2018-07-04T02:23:52.989Z,26.00
2018-07-04T02:26:26.454Z,26.97
2018-07-04T02:29:00.041Z,26.80
2018-07-04T02:31:40.308Z,28.37
2018-07-04T02:34:25.202Z,26.30
2018-07-04T02:37:05.749Z,28.47
2018-07-04T02:39:45.032Z,27.03
2018-07-04T02:42:24.506Z,29.07
2018-07-04T02:45:04.158Z,29.67
2018-07-04T02:47:43.363Z,27.43
2018-07-04T02:50:22.878Z,30.97
2018-07-04T02:53:02.196Z,27.43
2018-07-04T02:55:41.370Z,28.70
2018-07-04T02:58:20.741Z,28.47
2018-07-04T03:00:59.903Z,27.70
2018-07-04T03:03:39.016Z,28.27
2018-07-04T03:06:18.165Z,28.30
2018-07-04T03:08:57.179Z,28.93
2018-07-04T03:11:36.374Z,31.33
2018-07-04T03:14:15.670Z,29.82
2018-07-04T03:16:54.898Z,26.57
2018-07-04T03:19:34.126Z,30.27
2018-07-04T03:22:13.333Z,29.77
2018-07-04T03:24:52.449Z,29.40
2018-07-04T03:27:25.936Z,29.50
2018-07-04T03:30:05.069Z,31.83
2018-07-04T03:32:45.136Z,30.23
2018-07-04T03:35:24.270Z,31.70
2018-07-04T03:38:03.574Z,34.15
2018-07-04T03:40:42.954Z,32.37
2018-07-04T03:43:22.189Z,34.30
2018-07-04T03:45:55.729Z,31.45
2018-07-04T03:48:35.124Z,33.85
2018-07-04T03:51:14.449Z,32.28
2018-07-04T03:53:53.527Z,34.65
2018-07-04T03:56:32.693Z,33.63
2018-07-04T03:59:11.717Z,34.35
2018-07-04T04:01:50.913Z,32.87
2018-07-04T04:04:25.578Z,35.13
2018-07-04T04:07:04.740Z,31.60
2018-07-04T04:09:39.417Z,31.12
2018-07-04T04:12:18.695Z,33.27
2018-07-04T04:14:57.851Z,34.50
2018-07-04T04:17:37.133Z,33.70
2018-07-04T04:20:14.725Z,34.30
2018-07-04T04:22:53.679Z,33.67
2018-07-04T04:25:33.932Z,31.93
2018-07-04T04:28:13.066Z,32.03
2018-07-04T04:30:52.177Z,33.93
2018-07-04T04:33:31.217Z,37.47
2018-07-04T04:36:04.889Z,34.53
2018-07-04T04:38:43.985Z,34.23
2018-07-04T04:41:17.741Z,33.77
2018-07-04T04:43:57.162Z,34.63
2018-07-04T04:46:36.612Z,36.30
2018-07-04T04:49:15.903Z,34.97
2018-07-04T04:51:56.711Z,36.67
2018-07-04T04:54:35.989Z,35.03
2018-07-04T04:57:15.179Z,34.30
2018-07-04T04:59:54.269Z,33.97
2018-07-04T05:02:27.828Z,33.03
2018-07-04T05:05:01.445Z,36.60
2018-07-04T05:07:41.530Z,33.67
2018-07-04T05:10:20.950Z,32.60
2018-07-04T05:13:00.078Z,33.30
2018-07-04T05:15:33.541Z,39.50
2018-07-04T05:18:13.010Z,31.80
2018-07-04T05:20:52.253Z,32.30
2018-07-04T05:23:25.785Z,33.27
2018-07-04T05:25:59.446Z,32.70
2018-07-04T05:28:39.548Z,30.83
2018-07-04T05:31:18.766Z,34.53
2018-07-04T05:33:58.267Z,33.20
2018-07-04T05:36:31.690Z,32.97
2018-07-04T05:39:11.030Z,31.83
2018-07-04T05:41:50.334Z,33.30
2018-07-04T05:44:29.771Z,34.07
2018-07-04T05:47:03.305Z,31.87
2018-07-04T05:49:42.474Z,32.17
2018-07-04T05:52:16.010Z,31.13
2018-07-04T05:54:55.558Z,32.23
2018-07-04T05:57:34.691Z,32.90
2018-07-04T06:00:13.994Z,34.00
2018-07-04T06:02:47.689Z,32.93
2018-07-04T06:05:26.822Z,34.13
2018-07-04T06:08:05.856Z,32.27
2018-07-04T06:10:45.026Z,29.87
2018-07-04T06:13:24.587Z,30.43
2018-07-04T06:16:03.953Z,31.60
2018-07-04T06:18:43.174Z,31.60
2018-07-04T06:21:22.644Z,31.73
2018-07-04T06:24:02.047Z,33.20
2018-07-04T06:26:41.462Z,32.07
2018-07-04T06:29:20.975Z,36.73
2018-07-04T06:32:00.301Z,33.73
2018-07-04T06:34:39.482Z,31.70
2018-07-04T06:37:18.882Z,31.60
2018-07-04T06:39:46.206Z,29.40
2018-07-04T06:42:13.077Z,27.97
2018-07-04T06:44:40.004Z,29.43
2018-07-04T06:47:06.791Z,28.90
2018-07-04T06:49:34.571Z,29.03
2018-07-04T06:52:01.783Z,27.07
2018-07-04T06:54:28.866Z,30.13
2018-07-04T06:56:55.714Z,29.43
2018-07-04T06:59:22.490Z,29.63
2018-07-04T07:01:49.496Z,27.93
2018-07-04T07:04:28.914Z,28.43
2018-07-04T07:07:08.350Z,29.83
2018-07-04T07:09:47.853Z,28.63
2018-07-04T07:12:27.223Z,29.33
2018-07-04T07:15:06.570Z,26.00
2018-07-04T07:17:45.852Z,27.73
2018-07-04T07:20:25.192Z,27.87
2018-07-04T07:23:05.689Z,25.77
2018-07-04T07:25:44.845Z,25.40
2018-07-04T07:28:24.166Z,26.90
2018-07-04T07:31:03.368Z,27.10
2018-07-04T07:33:42.815Z,27.57
2018-07-04T07:36:22.124Z,25.63
2018-07-04T07:39:01.199Z,25.53
2018-07-04T07:41:41.553Z,24.50
2018-07-04T07:44:20.682Z,24.67
2018-07-04T07:46:59.935Z,23.40
2018-07-04T07:49:40.302Z,24.63
2018-07-04T07:52:19.442Z,22.13
2018-07-04T07:54:52.894Z,25.27
2018-07-04T07:57:32.014Z,26.13
2018-07-04T08:00:11.169Z,23.37
2018-07-04T08:02:50.454Z,23.07
2018-07-04T08:05:29.654Z,23.33
2018-07-04T08:08:09.015Z,22.80
2018-07-04T08:10:42.258Z,23.30
2018-07-04T08:13:15.531Z,22.67
2018-07-04T08:15:54.925Z,29.80
2018-07-04T08:18:28.278Z,23.63
2018-07-04T08:21:07.778Z,20.70
2018-07-04T08:23:47.155Z,21.10
2018-07-04T08:26:27.313Z,22.20
2018-07-04T08:29:06.590Z,21.33
2018-07-04T08:31:45.807Z,22.30
2018-07-04T08:34:25.209Z,22.30
2018-07-04T08:37:04.610Z,21.13
